createdAt,value
2023-11-23T00:01:40.018Z,50.50
2023-11-23T00:04:12.047Z,52.33
2023-11-23T00:06:42.315Z,51.35
2023-11-23T00:09:10.819Z,52.65
2023-11-23T00:11:39.045Z,52.35
2023-11-23T00:14:09.049Z,53.13
2023-11-23T00:16:37.778Z,56.58
2023-11-23T00:19:07.654Z,54.85
2023-11-23T00:21:36.749Z,54.90
2023-11-23T00:24:08.125Z,55.47
2023-11-23T00:29:07.653Z,52.08
2023-11-23T00:31:36.245Z,50.83
2023-11-23T00:34:06.898Z,53.13
2023-11-23T00:36:39.252Z,52.53
2023-11-23T00:41:44.775Z,52.03
2023-11-23T00:44:13.306Z,56.70
2023-11-23T00:46:43.778Z,54.28
2023-11-23T00:49:12.807Z,56.00
2023-11-23T00:51:41.345Z,56.80
2023-11-23T00:54:14.251Z,57.40
2023-11-23T00:56:42.847Z,53.70
2023-11-23T00:59:11.834Z,52.85
2023-11-23T01:01:40.946Z,52.65
2023-11-23T01:04:10.149Z,55.58
2023-11-23T01:06:39.109Z,57.08
2023-11-23T01:09:11.489Z,54.88
2023-11-23T01:11:40.129Z,56.30
2023-11-23T01:14:09.756Z,57.08
2023-11-23T01:16:38.887Z,55.30
2023-11-23T01:19:07.553Z,54.33
2023-11-23T01:21:37.838Z,52.58
2023-11-23T01:24:09.416Z,52.55
2023-11-23T01:26:40.512Z,56.90
2023-11-23T01:29:10.120Z,52.33
2023-11-23T01:31:39.237Z,54.45
2023-11-23T01:34:07.944Z,51.97
2023-11-23T01:36:37.045Z,55.38
2023-11-23T01:39:06.362Z,52.28
2023-11-23T01:41:35.816Z,52.05
2023-11-23T01:44:07.409Z,52.83
2023-11-23T01:46:35.962Z,56.80
2023-11-23T01:49:06.797Z,54.70
2023-11-23T01:51:36.213Z,56.00
2023-11-23T01:54:05.620Z,53.25
2023-11-23T01:56:34.352Z,47.55
2023-11-23T01:59:02.953Z,55.47
2023-11-23T02:01:35.463Z,54.40
2023-11-23T02:04:05.539Z,55.47
2023-11-23T02:06:34.784Z,52.33
2023-11-23T02:09:06.839Z,52.27
2023-11-23T02:11:35.746Z,51.08
2023-11-23T02:14:08.079Z,53.25
2023-11-23T02:16:40.333Z,51.50
2023-11-23T02:19:10.321Z,52.95
2023-11-23T02:21:39.050Z,54.42
2023-11-23T02:24:12.813Z,52.22
2023-11-23T02:26:42.005Z,50.67
2023-11-23T02:29:10.545Z,50.15
2023-11-23T02:31:41.901Z,53.80
2023-11-23T02:34:10.757Z,52.78
2023-11-23T02:36:39.317Z,53.20
2023-11-23T02:39:07.778Z,50.03
2023-11-23T02:41:37.679Z,51.60
2023-11-23T02:44:06.610Z,52.33
2023-11-23T02:46:35.137Z,50.90
2023-11-23T02:49:03.778Z,51.83
2023-11-23T02:51:34.013Z,48.67
2023-11-23T02:54:02.896Z,48.22
2023-11-23T02:56:31.364Z,51.38
2023-11-23T02:59:01.970Z,50.88
2023-11-23T03:01:30.512Z,51.10
2023-11-23T03:03:59.223Z,54.28
2023-11-23T03:06:28.904Z,56.00
2023-11-23T03:08:57.440Z,53.17
2023-11-23T03:11:30.384Z,52.15
2023-11-23T03:14:00.864Z,49.95
2023-11-23T03:16:29.350Z,52.83
2023-11-23T03:19:00.985Z,50.67
2023-11-23T03:21:29.883Z,47.35
2023-11-23T03:23:58.672Z,49.38
2023-11-23T03:26:27.681Z,49.65
2023-11-23T03:28:56.388Z,46.95
2023-11-23T03:31:26.258Z,44.42
2023-11-23T03:33:55.313Z,44.38
2023-11-23T03:36:25.181Z,46.47
2023-11-23T03:38:53.975Z,45.42
2023-11-23T03:41:24.297Z,44.78
2023-11-23T03:43:53.887Z,43.92
2023-11-23T03:46:23.387Z,44.90
2023-11-23T03:48:54.025Z,42.72
2023-11-23T03:51:22.400Z,42.25
2023-11-23T03:53:51.327Z,42.90
2023-11-23T03:56:20.367Z,41.35
2023-11-23T03:58:49.001Z,42.03
2023-11-23T04:01:18.315Z,44.88
2023-11-23T04:03:47.932Z,41.08
2023-11-23T04:06:19.353Z,42.85
2023-11-23T04:08:49.732Z,44.45
2023-11-23T04:11:18.581Z,43.72
2023-11-23T04:13:47.823Z,47.00
2023-11-23T04:16:16.673Z,47.35
2023-11-23T04:18:46.048Z,49.22
2023-11-23T04:21:15.113Z,53.08
2023-11-23T04:23:45.731Z,53.20
2023-11-23T04:26:14.512Z,49.08
2023-11-23T04:28:43.477Z,55.10
2023-11-23T04:31:11.806Z,54.38
2023-11-23T04:33:40.840Z,47.28
2023-11-23T04:36:12.264Z,47.63
2023-11-23T04:38:42.269Z,48.47
2023-11-23T04:41:14.341Z,51.38
2023-11-23T04:43:44.216Z,50.67
2023-11-23T04:46:12.639Z,46.90
2023-11-23T04:48:41.351Z,52.92
2023-11-23T04:51:10.299Z,49.47
2023-11-23T04:53:38.780Z,48.03
2023-11-23T04:56:08.505Z,51.80
2023-11-23T04:58:38.155Z,48.75
2023-11-23T05:01:08.931Z,48.75
2023-11-23T05:03:37.749Z,46.58
2023-11-23T05:06:06.330Z,51.78
2023-11-23T05:08:37.077Z,50.65
2023-11-23T05:11:06.174Z,46.88
2023-11-23T05:13:35.573Z,52.05
2023-11-23T05:16:07.017Z,47.70
2023-11-23T05:18:37.631Z,46.78
2023-11-23T05:21:06.713Z,45.55
2023-11-23T05:23:35.028Z,45.20
2023-11-23T05:26:05.554Z,44.80
2023-11-23T05:28:36.429Z,47.60
2023-11-23T05:31:06.708Z,46.35
2023-11-23T05:33:35.707Z,45.63
2023-11-23T05:36:05.625Z,43.67
2023-11-23T05:38:34.132Z,46.03
2023-11-23T05:41:02.393Z,46.85
2023-11-23T05:43:33.076Z,41.45
2023-11-23T05:46:01.250Z,38.80
2023-11-23T05:48:31.419Z,37.97
2023-11-23T05:51:00.232Z,39.95
2023-11-23T05:53:28.750Z,43.03
2023-11-23T05:55:57.755Z,46.45
2023-11-23T05:58:28.263Z,43.97
2023-11-23T06:01:03.822Z,40.30
2023-11-23T06:03:40.555Z,42.55
2023-11-23T06:06:10.471Z,42.83
2023-11-23T06:08:42.793Z,39.30
2023-11-23T06:11:11.498Z,39.45
2023-11-23T06:13:41.055Z,40.40
2023-11-23T06:16:10.288Z,38.28
2023-11-23T06:18:40.099Z,39.40
2023-11-23T06:21:10.903Z,41.78
2023-11-23T06:23:39.341Z,42.88
2023-11-23T06:26:11.569Z,42.63
2023-11-23T06:28:40.263Z,40.85
2023-11-23T06:31:08.633Z,40.25
2023-11-23T06:33:37.026Z,42.40
2023-11-23T06:36:12.562Z,41.50
2023-11-23T06:38:41.449Z,38.50
2023-11-23T06:41:20.535Z,42.28
2023-11-23T06:43:51.215Z,37.90
2023-11-23T06:46:22.457Z,38.22
2023-11-23T06:48:51.275Z,41.17
2023-11-23T06:51:23.010Z,39.30
2023-11-23T06:56:22.715Z,37.63
2023-11-23T06:58:52.576Z,38.75
2023-11-23T07:01:22.746Z,38.22
2023-11-23T07:03:51.832Z,38.75
2023-11-23T07:06:25.343Z,40.45
2023-11-23T07:08:55.018Z,41.75
2023-11-23T07:11:24.130Z,37.15
2023-11-23T07:13:53.399Z,38.42
2023-11-23T07:16:22.785Z,41.63
2023-11-23T07:18:54.388Z,38.00
2023-11-23T07:21:26.057Z,36.78
2023-11-23T07:23:55.401Z,42.90
2023-11-23T07:26:23.988Z,40.58
2023-11-23T07:28:52.743Z,38.70
2023-11-23T07:31:21.328Z,37.15
2023-11-23T07:33:51.321Z,40.70
2023-11-23T07:36:19.957Z,39.22
2023-11-23T07:38:51.092Z,38.75
2023-11-23T07:41:19.378Z,36.30
2023-11-23T07:43:48.625Z,41.47
2023-11-23T07:46:17.238Z,40.65
2023-11-23T07:48:52.075Z,41.05
2023-11-23T07:51:21.657Z,41.95
2023-11-23T07:53:51.878Z,38.40
2023-11-23T07:56:22.032Z,37.90
2023-11-23T07:58:53.807Z,42.45
2023-11-23T08:01:22.255Z,39.67
2023-11-23T08:03:52.492Z,40.72
2023-11-23T08:06:21.232Z,41.28
2023-11-23T08:08:51.248Z,39.35
2023-11-23T08:11:19.698Z,43.33
2023-11-23T08:13:48.127Z,41.97
2023-11-23T08:16:18.725Z,43.63
2023-11-23T08:18:50.282Z,42.57
2023-11-23T08:21:19.373Z,43.20
2023-11-23T08:23:48.563Z,44.53
2023-11-23T08:26:18.372Z,46.90
2023-11-23T08:28:46.924Z,43.45
2023-11-23T08:31:15.550Z,39.60
2023-11-23T08:33:44.873Z,43.50
2023-11-23T08:36:17.293Z,41.40
2023-11-23T08:38:45.770Z,42.20
2023-11-23T08:41:14.502Z,42.20
2023-11-23T08:43:44.556Z,44.58
2023-11-23T08:46:13.252Z,40.83
2023-11-23T08:48:43.363Z,42.05
2023-11-23T08:51:12.845Z,43.20
2023-11-23T08:53:41.081Z,41.17
2023-11-23T08:56:09.717Z,39.92
2023-11-23T08:58:38.233Z,45.67
2023-11-23T09:01:08.861Z,36.83
2023-11-23T09:03:37.390Z,39.47
2023-11-23T09:06:06.600Z,36.80
2023-11-23T09:08:35.179Z,37.20
2023-11-23T09:11:03.796Z,34.13
2023-11-23T09:13:33.649Z,34.00
2023-11-23T09:16:02.595Z,33.15
2023-11-23T09:18:33.495Z,34.30
2023-11-23T09:21:02.200Z,37.43
2023-11-23T09:23:36.196Z,37.45
2023-11-23T09:26:05.929Z,31.95
2023-11-23T09:28:34.846Z,32.85
2023-11-23T09:31:04.003Z,33.60
2023-11-23T09:33:34.105Z,34.25
2023-11-23T09:36:03.812Z,31.17
2023-11-23T09:38:33.027Z,30.23
2023-11-23T09:41:01.439Z,30.85
2023-11-23T09:43:31.377Z,32.00
2023-11-23T09:46:00.464Z,34.95
2023-11-23T09:48:30.379Z,32.70
2023-11-23T09:51:00.444Z,32.28
2023-11-23T09:53:29.725Z,32.58
2023-11-23T09:55:58.280Z,30.55
2023-11-23T09:58:26.965Z,32.28
2023-11-23T10:00:55.462Z,31.50
2023-11-23T10:03:26.513Z,30.00
2023-11-23T10:05:57.834Z,29.00
2023-11-23T10:08:32.061Z,27.60
2023-11-23T10:11:04.286Z,28.25
2023-11-23T10:13:32.619Z,28.75
2023-11-23T10:16:05.768Z,27.98
2023-11-23T10:18:38.353Z,29.23
2023-11-23T10:21:06.806Z,25.65
2023-11-23T10:23:36.714Z,27.67
2023-11-23T10:26:05.250Z,26.80
2023-11-23T10:28:33.758Z,27.33
2023-11-23T10:31:05.390Z,26.23
2023-11-23T10:33:36.630Z,27.58
2023-11-23T10:36:06.927Z,31.58
2023-11-23T10:38:44.083Z,27.52
2023-11-23T10:41:16.002Z,27.35
2023-11-23T10:43:47.010Z,27.38
2023-11-23T10:46:17.179Z,28.08
2023-11-23T10:48:46.913Z,27.70
2023-11-23T10:51:17.504Z,27.35
2023-11-23T10:53:47.348Z,28.65
2023-11-23T10:56:22.155Z,29.55
2023-11-23T10:58:55.352Z,31.38
2023-11-23T11:01:27.197Z,30.00
2023-11-23T11:04:10.705Z,29.95
2023-11-23T11:07:01.017Z,29.50
2023-11-23T11:09:41.596Z,30.42
2023-11-23T11:12:23.784Z,28.93
2023-11-23T11:15:32.961Z,29.63
2023-11-23T11:21:48.352Z,29.08
2023-11-23T11:24:55.091Z,28.63
2023-11-23T11:27:31.502Z,29.73
2023-11-23T11:30:04.761Z,31.25
2023-11-23T11:33:19.545Z,31.98
2023-11-23T11:35:50.059Z,28.15
2023-11-23T11:38:18.692Z,27.75
2023-11-23T11:40:52.439Z,28.00
2023-11-23T11:43:21.080Z,29.90
2023-11-23T11:45:49.857Z,27.70
2023-11-23T11:48:21.041Z,28.02
2023-11-23T11:50:57.215Z,30.13
2023-11-23T11:53:26.411Z,28.08
2023-11-23T11:55:57.713Z,27.27
2023-11-23T11:58:30.552Z,27.20
2023-11-23T12:00:58.924Z,28.23
2023-11-23T12:03:27.906Z,26.52
2023-11-23T12:05:56.682Z,26.70
2023-11-23T12:08:26.312Z,29.20
2023-11-23T12:10:54.495Z,26.88
2023-11-23T12:13:28.103Z,26.17
2023-11-23T12:15:56.409Z,25.70
2023-11-23T12:18:32.764Z,25.33
2023-11-23T12:21:01.793Z,26.65
2023-11-23T12:23:30.483Z,26.00
2023-11-23T12:25:58.787Z,24.45
2023-11-23T12:28:32.042Z,24.52
2023-11-23T12:31:00.469Z,24.73
2023-11-23T12:33:29.548Z,24.40
2023-11-23T12:35:58.873Z,24.45
2023-11-23T12:38:27.706Z,23.30
2023-11-23T12:40:56.469Z,23.58
2023-11-23T12:43:25.120Z,24.05
2023-11-23T12:45:55.645Z,23.30
2023-11-23T12:48:25.373Z,26.23
2023-11-23T12:50:54.164Z,21.58
2023-11-23T12:53:23.190Z,22.80
2023-11-23T12:55:51.724Z,23.33
2023-11-23T12:58:21.950Z,25.15
2023-11-23T13:00:51.689Z,24.63
2023-11-23T13:03:23.881Z,25.38
2023-11-23T13:08:23.415Z,25.25
2023-11-23T13:10:53.079Z,22.13
2023-11-23T13:13:21.638Z,22.52
2023-11-23T13:15:50.094Z,30.52
2023-11-23T13:18:18.970Z,24.42
2023-11-23T13:20:49.243Z,26.77
2023-11-23T13:23:18.037Z,29.25
2023-11-23T13:25:47.725Z,24.08
2023-11-23T13:28:16.590Z,25.13
2023-11-23T13:30:46.461Z,21.77
2023-11-23T13:33:21.985Z,21.92
2023-11-23T13:35:51.976Z,22.15
2023-11-23T13:38:20.397Z,22.80
2023-11-23T13:40:50.087Z,22.40
2023-11-23T13:43:20.325Z,23.02
2023-11-23T13:45:52.344Z,21.83
2023-11-23T13:48:21.091Z,22.00
2023-11-23T13:50:51.490Z,21.90
2023-11-23T13:53:20.274Z,24.63
2023-11-23T13:55:51.353Z,26.35
2023-11-23T13:58:20.730Z,27.15
2023-11-23T14:00:51.018Z,29.30
2023-11-23T14:03:20.324Z,27.52
2023-11-23T14:05:49.772Z,27.40
2023-11-23T14:08:22.221Z,31.67
2023-11-23T14:13:22.604Z,30.52
2023-11-23T14:15:52.022Z,31.48
2023-11-23T14:18:22.398Z,31.65
2023-11-23T14:20:51.541Z,34.70
2023-11-23T14:23:22.082Z,35.47
2023-11-23T14:25:51.566Z,38.03
2023-11-23T14:28:21.585Z,34.65
2023-11-23T14:30:53.863Z,36.33
2023-11-23T14:33:23.531Z,34.47
2023-11-23T14:35:55.160Z,36.42
2023-11-23T14:38:26.652Z,36.72
2023-11-23T14:40:56.615Z,37.65
2023-11-23T14:43:28.707Z,37.95
2023-11-23T14:45:59.753Z,37.92
2023-11-23T14:48:31.325Z,36.73
2023-11-23T14:51:00.974Z,43.17
2023-11-23T14:53:31.737Z,37.40
2023-11-23T14:56:01.788Z,38.15
2023-11-23T14:58:32.332Z,35.47
2023-11-23T15:01:01.538Z,36.70
2023-11-23T15:03:31.426Z,34.63
2023-11-23T15:06:03.287Z,37.75
2023-11-23T15:08:33.721Z,36.28
2023-11-23T15:11:02.955Z,33.40
2023-11-23T15:13:38.257Z,34.50
2023-11-23T15:16:09.982Z,36.25
2023-11-23T15:18:39.345Z,33.70
2023-11-23T15:21:09.278Z,31.67
2023-11-23T15:23:40.113Z,34.67
2023-11-23T15:26:12.009Z,35.22
2023-11-23T15:28:40.819Z,36.72
2023-11-23T15:31:12.022Z,33.42
2023-11-23T15:33:42.529Z,37.72
2023-11-23T15:36:12.787Z,37.35
2023-11-23T15:38:43.953Z,34.17
2023-11-23T15:41:13.876Z,35.53
2023-11-23T15:43:43.688Z,35.42
2023-11-23T15:46:14.451Z,32.42
2023-11-23T15:48:44.370Z,35.90
2023-11-23T15:51:16.144Z,37.88
2023-11-23T15:53:48.512Z,38.47
2023-11-23T15:56:18.298Z,36.90
2023-11-23T15:58:47.537Z,36.95
2023-11-23T16:01:16.747Z,40.35
2023-11-23T16:03:46.149Z,48.88
2023-11-23T16:06:16.190Z,39.10
2023-11-23T16:08:47.279Z,37.97
2023-11-23T16:11:16.407Z,40.13
2023-11-23T16:13:47.720Z,37.63
2023-11-23T16:16:17.055Z,36.08
2023-11-23T16:18:46.462Z,37.92
2023-11-23T16:21:15.638Z,39.28
2023-11-23T16:23:46.230Z,37.95
2023-11-23T16:26:15.167Z,39.80
2023-11-23T16:28:44.386Z,39.35
2023-11-23T16:31:13.710Z,46.22
2023-11-23T16:33:43.118Z,45.53
2023-11-23T16:36:26.049Z,42.83
2023-11-23T16:39:01.100Z,41.90
2023-11-23T16:41:30.353Z,38.83
2023-11-23T16:43:59.704Z,39.22
2023-11-23T16:46:28.685Z,51.33
2023-11-23T16:48:58.097Z,50.55
2023-11-23T16:51:27.789Z,46.65
2023-11-23T16:53:57.348Z,45.47
2023-11-23T16:56:28.113Z,43.63
2023-11-23T16:58:57.026Z,40.65
2023-11-23T17:01:26.621Z,41.53
2023-11-23T17:03:57.266Z,42.08
2023-11-23T17:06:26.605Z,42.47
2023-11-23T17:08:55.469Z,43.08
2023-11-23T17:11:24.579Z,46.58
2023-11-23T17:13:55.828Z,42.78
2023-11-23T17:16:25.200Z,39.85
2023-11-23T17:18:55.919Z,40.53
2023-11-23T17:21:26.100Z,38.83
2023-11-23T17:23:57.544Z,38.55
2023-11-23T17:26:27.041Z,39.45
2023-11-23T17:28:57.914Z,40.53
2023-11-23T17:31:27.322Z,39.17
2023-11-23T17:33:56.498Z,40.05
2023-11-23T17:36:25.937Z,41.03
2023-11-23T17:38:57.851Z,40.35
2023-11-23T17:41:28.310Z,39.97
2023-11-23T17:43:58.629Z,39.63
2023-11-23T17:46:27.941Z,40.83
2023-11-23T17:48:57.855Z,41.80
2023-11-23T17:51:28.488Z,39.45
2023-11-23T17:53:58.052Z,41.78
2023-11-23T17:56:27.194Z,42.78
2023-11-23T17:59:05.077Z,43.95
2023-11-23T18:01:47.537Z,42.13
2023-11-23T18:04:16.962Z,42.85
2023-11-23T18:06:47.005Z,43.45
2023-11-23T18:09:16.623Z,43.65
2023-11-23T18:11:46.508Z,48.55
2023-11-23T18:14:16.350Z,47.53
2023-11-23T18:16:48.166Z,45.50
2023-11-23T18:19:16.614Z,44.05
2023-11-23T18:21:46.938Z,47.25
2023-11-23T18:24:17.083Z,40.30
2023-11-23T18:26:47.390Z,43.07
2023-11-23T18:29:16.428Z,42.22
2023-11-23T18:31:48.222Z,45.75
2023-11-23T18:34:17.475Z,43.47
2023-11-23T18:36:47.692Z,42.92
2023-11-23T18:39:17.224Z,41.60
2023-11-23T18:41:46.778Z,46.75
2023-11-23T18:44:16.941Z,51.38
2023-11-23T18:46:47.142Z,44.65
2023-11-23T18:49:16.168Z,46.20
2023-11-23T18:51:45.678Z,46.58
2023-11-23T18:54:16.072Z,43.95
2023-11-23T18:56:47.929Z,44.47
2023-11-23T18:59:16.866Z,46.17
2023-11-23T19:01:47.947Z,46.25
2023-11-23T19:04:17.481Z,45.03
2023-11-23T19:06:50.205Z,45.63
2023-11-23T19:09:20.694Z,46.38
2023-11-23T19:11:50.846Z,45.53
2023-11-23T19:14:22.763Z,46.38
2023-11-23T19:16:53.500Z,44.20
2023-11-23T19:19:23.554Z,39.50
2023-11-23T19:21:52.853Z,43.80
2023-11-23T19:24:23.232Z,41.63
2023-11-23T19:26:53.323Z,40.75
2023-11-23T19:29:31.865Z,44.80
2023-11-23T19:32:12.882Z,43.17
2023-11-23T19:34:43.585Z,43.78
2023-11-23T19:37:14.396Z,46.90
2023-11-23T19:39:44.691Z,44.35
2023-11-23T19:42:17.072Z,45.70
2023-11-23T19:44:47.597Z,43.35
2023-11-23T19:47:20.250Z,43.15
2023-11-23T19:49:50.142Z,48.42
2023-11-23T19:52:24.042Z,51.75
2023-11-23T19:54:54.042Z,46.88
2023-11-23T19:57:24.567Z,49.70
2023-11-23T19:59:53.850Z,50.95
2023-11-23T20:02:25.688Z,51.78
2023-11-23T20:04:55.213Z,54.47
2023-11-23T20:07:24.349Z,55.80
2023-11-23T20:09:54.070Z,49.28
2023-11-23T20:12:23.227Z,47.35
2023-11-23T20:14:52.223Z,44.88
2023-11-23T20:17:21.556Z,48.47
2023-11-23T20:19:53.368Z,46.38
2023-11-23T20:22:24.386Z,45.85
2023-11-23T20:24:53.413Z,45.40
2023-11-23T20:27:23.744Z,44.88
2023-11-23T20:29:52.906Z,43.33
2023-11-23T20:32:21.814Z,55.70
2023-11-23T20:34:53.428Z,52.75
2023-11-23T20:37:22.472Z,42.90
2023-11-23T20:39:51.575Z,41.85
2023-11-23T20:42:21.325Z,42.40
2023-11-23T20:44:50.311Z,42.83
2023-11-23T20:47:21.305Z,43.33
2023-11-23T20:49:52.879Z,45.72
2023-11-23T20:52:26.041Z,48.97
2023-11-23T20:54:55.979Z,47.17
2023-11-23T20:57:26.192Z,45.17
2023-11-23T20:59:56.022Z,48.95
2023-11-23T21:02:26.093Z,63.60
2023-11-23T21:04:57.700Z,44.75
2023-11-23T21:07:27.332Z,41.88
2023-11-23T21:10:00.186Z,42.53
2023-11-23T21:12:30.428Z,42.05
2023-11-23T21:14:59.942Z,43.60
2023-11-23T21:17:29.876Z,42.88
2023-11-23T21:20:01.668Z,45.40
2023-11-23T21:22:30.724Z,45.55
2023-11-23T21:24:59.797Z,45.95
2023-11-23T21:27:38.252Z,48.03
2023-11-23T21:30:09.564Z,45.72
2023-11-23T21:32:39.802Z,45.17
2023-11-23T21:35:10.217Z,43.45
2023-11-23T21:37:39.394Z,45.00
2023-11-23T21:40:12.044Z,45.63
2023-11-23T21:42:41.238Z,45.10
2023-11-23T21:45:10.699Z,43.88
2023-11-23T21:47:40.091Z,45.50
2023-11-23T21:50:12.474Z,45.20
2023-11-23T21:52:42.234Z,46.83
2023-11-23T21:55:11.632Z,45.35
2023-11-23T21:57:41.467Z,47.00
2023-11-23T22:00:13.057Z,47.97
2023-11-23T22:02:42.964Z,46.92
2023-11-23T22:05:12.796Z,51.60
2023-11-23T22:07:41.861Z,48.45
2023-11-23T22:10:10.678Z,49.05
2023-11-23T22:12:39.639Z,48.17
2023-11-23T22:15:10.548Z,50.00
2023-11-23T22:17:39.473Z,49.30
2023-11-23T22:20:10.700Z,51.05
2023-11-23T22:22:43.121Z,49.97
2023-11-23T22:25:13.981Z,51.63
2023-11-23T22:27:44.410Z,53.92
2023-11-23T22:30:14.358Z,51.40
2023-11-23T22:32:46.583Z,53.63
2023-11-23T22:35:16.268Z,54.15
2023-11-23T22:37:46.634Z,51.92
2023-11-23T22:40:16.198Z,56.75
2023-11-23T22:42:44.919Z,50.92
2023-11-23T22:45:14.240Z,50.28
2023-11-23T22:47:42.950Z,52.50
2023-11-23T22:50:12.217Z,51.95
2023-11-23T22:52:41.468Z,51.30
2023-11-23T22:55:11.468Z,51.03
2023-11-23T22:57:40.199Z,50.42
2023-11-23T23:00:25.621Z,49.53
2023-11-23T23:02:54.552Z,50.42
2023-11-23T23:05:26.373Z,50.65
2023-11-23T23:07:58.178Z,54.50
2023-11-23T23:10:29.604Z,55.97
2023-11-23T23:12:58.230Z,51.88
2023-11-23T23:15:27.153Z,52.22
2023-11-23T23:17:58.659Z,55.35
2023-11-23T23:20:27.450Z,51.83
2023-11-23T23:22:58.031Z,55.72
2023-11-23T23:25:26.550Z,56.22
2023-11-23T23:27:57.289Z,57.65
2023-11-23T23:30:27.661Z,55.95
2023-11-23T23:32:56.204Z,53.97
2023-11-23T23:35:26.434Z,59.03
2023-11-23T23:37:55.217Z,55.15
2023-11-23T23:40:25.707Z,57.30
2023-11-23T23:42:55.073Z,59.90
2023-11-23T23:45:25.822Z,57.85
2023-11-23T23:47:55.782Z,60.80
2023-11-23T23:50:26.760Z,52.80
2023-11-23T23:55:24.729Z,51.28
2023-11-23T23:57:53.007Z,51.80
